createdAt,value
2018-04-12T00:02:22.561Z,10.80
2018-04-12T00:04:48.775Z,10.80
2018-04-12T00:07:15.706Z,10.80
2018-04-12T00:09:41.919Z,10.80
2018-04-12T00:12:08.102Z,10.80
2018-04-12T00:14:34.323Z,10.80
2018-04-12T00:17:00.511Z,10.80
2018-04-12T00:19:26.750Z,10.80
2018-04-12T00:21:53.684Z,10.80
2018-04-12T00:24:19.902Z,10.80
2018-04-12T00:26:46.087Z,10.80
2018-04-12T00:29:12.331Z,10.80
2018-04-12T00:31:38.866Z,10.80
2018-04-12T00:34:05.082Z,10.70
2018-04-12T00:36:31.279Z,10.70
2018-04-12T00:38:58.239Z,10.70
2018-04-12T00:41:25.172Z,10.70
2018-04-12T00:43:52.135Z,10.80
2018-04-12T00:46:18.332Z,10.70
2018-04-12T00:48:44.567Z,10.80
2018-04-12T00:51:10.759Z,10.80
2018-04-12T00:53:49.591Z,10.80
2018-04-12T00:56:15.803Z,10.80
2018-04-12T00:58:41.990Z,10.80
2018-04-12T01:01:08.291Z,10.80
2018-04-12T01:03:35.131Z,10.80
2018-04-12T01:06:01.871Z,10.80
2018-04-12T01:08:28.408Z,10.80
2018-04-12T01:10:54.648Z,10.80
2018-04-12T01:13:20.855Z,10.70
2018-04-12T01:15:47.095Z,10.60
2018-04-12T01:18:13.324Z,10.60
2018-04-12T01:20:39.567Z,10.60
2018-04-12T01:23:05.815Z,10.60
2018-04-12T01:25:32.934Z,10.60
2018-04-12T01:27:59.335Z,10.60
2018-04-12T01:30:26.144Z,10.60
2018-04-12T01:33:04.719Z,10.50
2018-04-12T01:35:30.959Z,10.50
2018-04-12T01:37:57.148Z,10.50
2018-04-12T01:40:23.387Z,10.50
2018-04-12T01:42:49.598Z,10.60
2018-04-12T01:45:15.796Z,10.60
2018-04-12T01:47:42.040Z,10.60
2018-04-12T01:50:08.980Z,10.50
2018-04-12T01:52:35.958Z,10.40
2018-04-12T01:55:02.172Z,10.40
2018-04-12T01:57:28.432Z,10.40
2018-04-12T01:59:54.639Z,10.40
2018-04-12T02:02:20.835Z,10.30
2018-04-12T02:04:47.796Z,10.30
2018-04-12T02:07:14.732Z,10.30
2018-04-12T02:09:41.744Z,10.30
2018-04-12T02:12:07.940Z,10.30
2018-04-12T02:14:34.155Z,10.30
2018-04-12T02:17:00.342Z,10.40
2018-04-12T02:19:26.581Z,10.30
2018-04-12T02:21:52.775Z,10.30
2018-04-12T02:24:18.990Z,10.30
2018-04-12T02:26:45.183Z,10.30
2018-04-12T02:29:12.144Z,10.30
2018-04-12T02:31:38.343Z,10.30
2018-04-12T02:34:04.575Z,10.30
2018-04-12T02:36:30.764Z,10.30
2018-04-12T02:38:56.987Z,10.40
2018-04-12T02:41:23.183Z,10.40
2018-04-12T02:43:50.137Z,10.40
2018-04-12T02:46:16.325Z,10.40
2018-04-12T02:48:42.536Z,10.30
2018-04-12T02:51:08.735Z,10.30
2018-04-12T02:53:34.947Z,10.30
2018-04-12T02:56:01.142Z,10.30
2018-04-12T02:58:27.362Z,10.30
2018-04-12T03:00:54.330Z,10.40
2018-04-12T03:03:21.303Z,10.50
2018-04-12T03:05:47.491Z,10.50
2018-04-12T03:08:14.480Z,10.40
2018-04-12T03:10:40.673Z,10.40
2018-04-12T03:13:06.887Z,10.30
2018-04-12T03:15:33.073Z,10.30
2018-04-12T03:17:59.316Z,10.30
2018-04-12T03:20:25.512Z,10.20
2018-04-12T03:22:52.463Z,10.20
2018-04-12T03:25:18.661Z,10.30
2018-04-12T03:27:44.884Z,10.20
2018-04-12T03:30:11.079Z,10.30
2018-04-12T03:32:37.296Z,10.30
2018-04-12T03:35:03.494Z,10.20
2018-04-12T03:37:30.454Z,10.20
2018-04-12T03:39:56.658Z,10.20
2018-04-12T03:42:24.116Z,10.20
2018-04-12T03:44:51.054Z,10.20
2018-04-12T03:47:17.335Z,10.20
2018-04-12T03:49:50.451Z,10.20
2018-04-12T03:52:16.672Z,10.20
2018-04-12T03:54:42.859Z,10.20
2018-04-12T03:57:09.814Z,10.20
2018-04-12T03:59:36.002Z,10.20
2018-04-12T04:02:02.221Z,10.20
2018-04-12T04:04:28.420Z,10.20
2018-04-12T04:06:54.630Z,10.20
2018-04-12T04:09:20.824Z,10.20
2018-04-12T04:11:47.034Z,10.10
2018-04-12T04:14:25.639Z,10.10
2018-04-12T04:17:04.378Z,10.10
2018-04-12T04:19:42.995Z,10.10
2018-04-12T04:22:09.207Z,10.10
2018-04-12T04:24:35.390Z,10.00
2018-04-12T04:27:02.343Z,10.00
2018-04-12T04:29:28.599Z,10.00
2018-04-12T04:31:54.795Z,10.10
2018-04-12T04:34:21.746Z,10.10
2018-04-12T04:36:48.679Z,10.10
2018-04-12T04:39:15.638Z,10.10
2018-04-12T04:41:42.566Z,10.00
2018-04-12T04:44:09.527Z,10.00
2018-04-12T04:46:36.464Z,10.00
2018-04-12T04:49:03.427Z,10.00
2018-04-12T04:51:29.610Z,10.00
2018-04-12T04:53:55.836Z,10.00
2018-04-12T04:56:22.031Z,10.00
2018-04-12T04:58:48.239Z,10.00
2018-04-12T05:01:14.453Z,10.00
2018-04-12T05:03:41.402Z,10.00
2018-04-12T05:06:08.439Z,10.10
2018-04-12T05:08:34.639Z,10.00
2018-04-12T05:11:00.851Z,10.00
2018-04-12T05:13:27.051Z,10.00
2018-04-12T05:15:53.272Z,10.10
2018-04-12T05:18:20.227Z,10.10
2018-04-12T05:20:46.444Z,10.10
2018-04-12T05:23:13.394Z,10.20
2018-04-12T05:25:40.367Z,10.20
2018-04-12T05:28:06.555Z,10.20
2018-04-12T05:30:33.506Z,10.30
2018-04-12T05:33:00.444Z,10.30
2018-04-12T05:35:26.683Z,10.30
2018-04-12T05:37:53.615Z,10.40
2018-04-12T05:40:20.580Z,10.40
2018-04-12T05:42:47.515Z,10.50
2018-04-12T05:45:14.472Z,10.50
2018-04-12T05:47:40.691Z,10.50
2018-04-12T05:50:07.655Z,10.50
2018-04-12T05:52:33.846Z,10.50
2018-04-12T05:55:00.066Z,10.50
2018-04-12T05:57:26.255Z,10.60
2018-04-12T05:59:52.471Z,10.50
2018-04-12T06:02:18.667Z,10.50
2018-04-12T06:04:44.891Z,10.50
2018-04-12T06:07:11.079Z,10.40
2018-04-12T06:09:37.299Z,10.30
2018-04-12T06:12:03.493Z,10.40
2018-04-12T06:14:30.518Z,10.40
2018-04-12T06:16:56.751Z,10.40
2018-04-12T06:19:23.783Z,10.40
2018-04-12T06:21:49.971Z,10.30
2018-04-12T06:24:16.474Z,10.40
2018-04-12T06:26:42.703Z,10.50
2018-04-12T06:29:08.927Z,10.50
2018-04-12T06:31:35.123Z,10.60
2018-04-12T06:34:01.571Z,10.70
2018-04-12T06:36:27.778Z,10.80
2018-04-12T06:38:53.963Z,10.90
2018-04-12T06:41:20.207Z,11.00
2018-04-12T06:43:46.485Z,11.00
2018-04-12T06:46:12.727Z,11.20
2018-04-12T06:48:38.919Z,11.30
2018-04-12T06:51:05.131Z,11.40
2018-04-12T06:53:34.271Z,11.50
2018-04-12T06:56:00.487Z,11.60
2018-04-12T06:58:26.679Z,11.70
2018-04-12T07:00:52.899Z,11.60
2018-04-12T07:03:19.167Z,11.60
2018-04-12T07:05:45.374Z,11.60
2018-04-12T07:08:11.564Z,11.70
2018-04-12T07:10:38.523Z,11.80
2018-04-12T07:13:05.500Z,11.90
2018-04-12T07:15:31.698Z,11.80
2018-04-12T07:17:58.710Z,12.00
2018-04-12T07:20:24.932Z,12.00
2018-04-12T07:22:51.153Z,12.20
2018-04-12T07:25:17.367Z,12.50
2018-04-12T07:27:43.554Z,12.60
2018-04-12T07:30:10.519Z,12.70
2018-04-12T07:32:36.715Z,12.70
2018-04-12T07:35:03.211Z,12.70
2018-04-12T07:37:29.455Z,12.70
2018-04-12T07:39:55.690Z,12.70
2018-04-12T07:42:21.883Z,13.40
2018-04-12T07:44:48.123Z,14.20
2018-04-12T07:47:14.314Z,14.40
2018-04-12T07:49:41.271Z,14.40
2018-04-12T07:52:08.206Z,14.30
2018-04-12T07:54:35.159Z,14.10
2018-04-12T07:57:02.086Z,13.80
2018-04-12T07:59:35.980Z,14.00
2018-04-12T08:02:02.197Z,14.00
2018-04-12T08:04:28.419Z,14.30
2018-04-12T08:06:54.652Z,14.40
2018-04-12T08:09:20.875Z,14.40
2018-04-12T08:11:47.074Z,14.30
2018-04-12T08:14:13.306Z,14.70
2018-04-12T08:16:39.515Z,14.50
2018-04-12T08:19:06.524Z,13.80
2018-04-12T08:21:32.727Z,13.80
2018-04-12T08:23:58.935Z,13.70
2018-04-12T08:26:25.208Z,13.70
2018-04-12T08:28:51.469Z,13.40
2018-04-12T08:31:18.422Z,13.40
2018-04-12T08:33:45.387Z,13.50
2018-04-12T08:36:11.574Z,13.50
2018-04-12T08:38:38.069Z,13.80
2018-04-12T08:41:04.260Z,14.10
2018-04-12T08:43:31.216Z,14.10
2018-04-12T08:45:58.173Z,14.00
2018-04-12T08:48:24.372Z,14.00
2018-04-12T08:50:51.307Z,13.90
2018-04-12T08:53:17.559Z,13.90
2018-04-12T08:55:44.506Z,14.00
2018-04-12T08:58:10.722Z,14.00
2018-04-12T09:00:37.690Z,15.90
2018-04-12T09:03:03.894Z,15.90
2018-04-12T09:05:30.163Z,17.70
2018-04-12T09:07:56.355Z,19.30
2018-04-12T09:10:23.315Z,20.80
2018-04-12T09:12:50.258Z,22.00
2018-04-12T09:15:20.131Z,22.10
2018-04-12T09:17:46.347Z,22.10
2018-04-12T09:20:12.665Z,22.90
2018-04-12T09:22:38.895Z,23.30
2018-04-12T09:25:05.090Z,24.00
2018-04-12T09:27:32.278Z,24.60
2018-04-12T09:29:58.491Z,24.50
2018-04-12T09:32:24.687Z,24.30
2018-04-12T09:34:50.907Z,24.00
2018-04-12T09:37:17.102Z,24.40
2018-04-12T09:39:43.330Z,24.60
2018-04-12T09:42:09.535Z,24.40
2018-04-12T09:44:35.751Z,24.70
2018-04-12T09:47:02.746Z,25.10
2018-04-12T09:49:29.035Z,25.00
2018-04-12T09:51:55.174Z,25.00
2018-04-12T09:54:21.387Z,25.70
2018-04-12T09:56:47.580Z,26.30
2018-04-12T09:59:13.770Z,26.60
2018-04-12T10:01:46.031Z,26.70
2018-04-12T10:04:16.120Z,26.80
2018-04-12T10:06:43.103Z,28.40
2018-04-12T10:09:14.312Z,28.30
2018-04-12T10:11:48.215Z,27.50
2018-04-12T10:14:15.198Z,27.40
2018-04-12T10:16:42.151Z,26.50
2018-04-12T10:19:08.390Z,26.40
2018-04-12T10:21:34.630Z,27.10
2018-04-12T10:24:00.820Z,27.00
2018-04-12T10:26:27.278Z,24.90
2018-04-12T10:28:53.467Z,23.20
2018-04-12T10:31:20.450Z,24.00
2018-04-12T10:33:46.638Z,23.90
2018-04-12T10:36:13.599Z,23.70
2018-04-12T10:38:39.831Z,23.70
2018-04-12T10:41:06.779Z,25.60
2018-04-12T10:43:32.975Z,25.50
2018-04-12T10:45:59.195Z,25.90
2018-04-12T10:48:25.378Z,27.00
2018-04-12T10:50:51.589Z,27.50
2018-04-12T10:53:18.622Z,27.30
2018-04-12T10:55:45.578Z,28.10
2018-04-12T10:58:12.507Z,28.70
2018-04-12T11:00:39.527Z,28.90
2018-04-12T11:03:06.499Z,29.20
2018-04-12T11:05:33.450Z,29.20
2018-04-12T11:08:00.386Z,28.80
2018-04-12T11:10:26.666Z,28.70
2018-04-12T11:12:52.859Z,29.60
2018-04-12T11:15:19.811Z,31.60
2018-04-12T11:17:46.762Z,32.90
2018-04-12T11:20:12.971Z,32.80
2018-04-12T11:22:39.908Z,32.90
2018-04-12T11:25:06.872Z,32.90
2018-04-12T11:27:33.795Z,32.40
2018-04-12T11:30:00.026Z,32.40
2018-04-12T11:32:26.226Z,32.30
2018-04-12T11:34:52.439Z,32.30
2018-04-12T11:37:18.627Z,31.80
2018-04-12T11:39:45.592Z,30.00
2018-04-12T11:42:11.784Z,30.00
2018-04-12T11:44:37.998Z,30.60
2018-04-12T11:47:04.191Z,31.10
2018-04-12T11:49:30.402Z,31.40
2018-04-12T11:51:56.605Z,29.60
2018-04-12T11:54:23.016Z,29.40
2018-04-12T11:56:49.235Z,30.80
2018-04-12T11:59:15.426Z,31.00
2018-04-12T12:01:41.690Z,30.70
2018-04-12T12:04:07.873Z,30.70
2018-04-12T12:06:34.827Z,27.30
2018-04-12T12:09:01.029Z,27.30
2018-04-12T12:11:27.244Z,25.80
2018-04-12T12:13:53.607Z,25.10
2018-04-12T12:16:20.570Z,25.10
2018-04-12T12:18:46.776Z,25.10
2018-04-12T12:21:13.738Z,25.40
2018-04-12T12:23:39.962Z,25.40
2018-04-12T12:26:06.910Z,25.10
2018-04-12T12:28:40.700Z,25.10
2018-04-12T12:31:07.736Z,24.40
2018-04-12T12:33:33.975Z,24.30
2018-04-12T12:36:00.911Z,24.10
2018-04-12T12:38:27.094Z,24.10
2018-04-12T12:40:53.346Z,23.80
2018-04-12T12:43:19.530Z,23.50
2018-04-12T12:45:45.739Z,23.20
2018-04-12T12:48:12.683Z,22.10
2018-04-12T12:50:39.645Z,21.60
2018-04-12T12:53:05.842Z,21.50
2018-04-12T12:55:33.539Z,22.80
2018-04-12T12:58:06.786Z,22.80
2018-04-12T13:00:33.007Z,23.80
2018-04-12T13:02:59.206Z,23.90
2018-04-12T13:05:25.438Z,23.10
2018-04-12T13:07:51.636Z,22.60
2018-04-12T13:10:18.592Z,23.70
2018-04-12T13:12:45.527Z,24.80
2018-04-12T13:15:12.558Z,25.90
2018-04-12T13:17:38.768Z,25.90
2018-04-12T13:20:05.015Z,26.10
2018-04-12T13:22:32.039Z,25.50
2018-04-12T13:24:58.314Z,25.40
2018-04-12T13:27:24.507Z,24.90
2018-04-12T13:29:50.739Z,25.00
2018-04-12T13:32:17.792Z,24.70
2018-04-12T13:34:44.028Z,24.60
2018-04-12T13:37:10.220Z,24.40
2018-04-12T13:39:36.434Z,24.00
2018-04-12T13:42:02.619Z,24.00
2018-04-12T13:44:28.809Z,24.40
2018-04-12T13:47:02.167Z,24.50
2018-04-12T13:49:28.387Z,24.60
2018-04-12T13:51:55.340Z,24.40
2018-04-12T13:54:22.357Z,24.00
2018-04-12T13:56:49.304Z,23.60
2018-04-12T13:59:15.519Z,23.50
2018-04-12T14:01:41.730Z,23.30
2018-04-12T14:04:08.387Z,23.00
2018-04-12T14:06:34.579Z,23.10
2018-04-12T14:09:00.771Z,23.10
2018-04-12T14:11:27.768Z,24.40
2018-04-12T14:13:53.971Z,24.40
2018-04-12T14:16:20.187Z,25.50
2018-04-12T14:18:47.139Z,27.10
2018-04-12T14:21:13.358Z,27.10
2018-04-12T14:23:40.295Z,27.10
2018-04-12T14:26:07.251Z,27.40
2018-04-12T14:28:34.183Z,26.90
2018-04-12T14:31:01.144Z,26.70
2018-04-12T14:33:28.087Z,26.00
2018-04-12T14:35:55.118Z,25.50
2018-04-12T14:38:21.301Z,25.50
2018-04-12T14:40:47.510Z,25.30
2018-04-12T14:43:13.767Z,25.50
2018-04-12T14:45:39.982Z,26.00
2018-04-12T14:48:06.171Z,26.50
2018-04-12T14:50:33.132Z,26.10
2018-04-12T14:52:59.326Z,26.10
2018-04-12T14:55:25.607Z,25.30
2018-04-12T14:57:51.794Z,24.30
2018-04-12T15:00:18.002Z,23.60
2018-04-12T15:02:44.190Z,23.20
2018-04-12T15:05:10.407Z,22.90
2018-04-12T15:07:36.614Z,22.70
2018-04-12T15:10:03.567Z,22.90
2018-04-12T15:12:30.507Z,22.80
2018-04-12T15:14:57.459Z,22.80
2018-04-12T15:17:24.395Z,22.80
2018-04-12T15:19:51.374Z,22.90
2018-04-12T15:22:17.570Z,22.90
2018-04-12T15:24:44.565Z,22.60
2018-04-12T15:27:10.755Z,22.50
2018-04-12T15:29:37.715Z,22.10
2018-04-12T15:32:03.966Z,22.10
2018-04-12T15:34:30.171Z,22.10
2018-04-12T15:36:56.388Z,22.10
2018-04-12T15:39:23.310Z,22.90
2018-04-12T15:41:49.524Z,22.90
2018-04-12T15:44:15.710Z,22.90
2018-04-12T15:46:41.921Z,22.70
2018-04-12T15:49:08.134Z,22.50
2018-04-12T15:51:34.347Z,22.30
2018-04-12T15:54:00.538Z,22.20
2018-04-12T15:56:26.754Z,22.10
2018-04-12T15:58:52.958Z,22.20
2018-04-12T16:01:19.937Z,22.30
2018-04-12T16:03:46.128Z,22.30
2018-04-12T16:06:13.104Z,22.20
2018-04-12T16:08:39.299Z,22.20
2018-04-12T16:11:05.495Z,22.10
2018-04-12T16:13:32.451Z,21.80
2018-04-12T16:15:58.783Z,21.80
2018-04-12T16:18:25.035Z,21.80
2018-04-12T16:20:51.995Z,21.80
2018-04-12T16:23:18.932Z,21.80
2018-04-12T16:25:45.919Z,21.60
2018-04-12T16:28:12.107Z,21.60
2018-04-12T16:30:39.043Z,21.30
2018-04-12T16:33:05.254Z,21.30
2018-04-12T16:35:31.486Z,21.30
2018-04-12T16:37:57.701Z,21.10
2018-04-12T16:40:23.955Z,21.00
2018-04-12T16:42:50.170Z,20.90
2018-04-12T16:45:16.404Z,20.80
2018-04-12T16:47:42.628Z,20.70
2018-04-12T16:50:08.841Z,20.60
2018-04-12T16:52:35.084Z,20.50
2018-04-12T16:55:01.295Z,20.40
2018-04-12T16:57:28.258Z,20.20
2018-04-12T16:59:54.467Z,20.10
2018-04-12T17:02:20.683Z,20.10
2018-04-12T17:04:46.865Z,20.00
2018-04-12T17:07:13.084Z,19.90
2018-04-12T17:09:39.299Z,19.70
2018-04-12T17:12:05.525Z,19.60
2018-04-12T17:14:31.740Z,19.60
2018-04-12T17:16:57.979Z,19.50
2018-04-12T17:19:24.219Z,19.40
2018-04-12T17:21:50.511Z,19.30
2018-04-12T17:24:16.719Z,19.30
2018-04-12T17:26:43.675Z,19.10
2018-04-12T17:29:09.877Z,19.10
2018-04-12T17:31:36.074Z,19.10
2018-04-12T17:34:02.282Z,19.00
2018-04-12T17:36:28.506Z,18.90
2018-04-12T17:38:54.722Z,18.90
2018-04-12T17:41:20.986Z,18.90
2018-04-12T17:43:47.211Z,18.80
2018-04-12T17:46:13.442Z,18.80
2018-04-12T17:48:39.658Z,18.70
2018-04-12T17:51:05.845Z,18.60
2018-04-12T17:53:32.814Z,18.50
2018-04-12T17:55:58.998Z,18.50
2018-04-12T17:58:25.211Z,18.40
2018-04-12T18:00:51.475Z,18.30
2018-04-12T18:03:17.711Z,18.30
2018-04-12T18:05:44.942Z,18.10
2018-04-12T18:08:11.159Z,18.10
2018-04-12T18:10:37.366Z,18.10
2018-04-12T18:13:03.579Z,17.90
2018-04-12T18:15:29.831Z,17.90
2018-04-12T18:17:56.824Z,17.80
2018-04-12T18:20:23.784Z,17.80
2018-04-12T18:22:50.744Z,17.70
2018-04-12T18:25:16.950Z,17.70
2018-04-12T18:27:43.903Z,17.70
2018-04-12T18:30:10.835Z,17.70
2018-04-12T18:32:37.793Z,17.70
2018-04-12T18:35:04.019Z,17.70
2018-04-12T18:37:30.974Z,17.70
2018-04-12T18:39:57.218Z,17.60
2018-04-12T18:42:24.218Z,17.60
2018-04-12T18:44:50.475Z,17.70
2018-04-12T18:47:16.694Z,17.60
2018-04-12T18:49:43.626Z,17.60
2018-04-12T18:52:09.855Z,17.50
2018-04-12T18:54:36.803Z,17.60
2018-04-12T18:57:02.986Z,17.50
2018-04-12T18:59:30.716Z,17.50
2018-04-12T19:01:57.647Z,17.50
2018-04-12T19:04:23.858Z,17.50
2018-04-12T19:06:50.788Z,17.40
2018-04-12T19:09:17.019Z,17.40
2018-04-12T19:11:43.534Z,17.40
2018-04-12T19:14:09.844Z,17.40
2018-04-12T19:16:36.031Z,17.30
2018-04-12T19:19:03.024Z,17.40
2018-04-12T19:21:29.215Z,17.40
2018-04-12T19:23:55.450Z,17.40
2018-04-12T19:26:21.727Z,17.40
2018-04-12T19:28:47.935Z,17.40
2018-04-12T19:31:14.119Z,17.40
2018-04-12T19:33:41.099Z,17.40
2018-04-12T19:36:07.319Z,17.40
2018-04-12T19:38:34.279Z,17.40
2018-04-12T19:41:00.471Z,17.40
2018-04-12T19:43:26.692Z,17.40
2018-04-12T19:45:52.906Z,17.50
2018-04-12T19:48:19.123Z,17.50
2018-04-12T19:50:45.319Z,17.50
2018-04-12T19:53:12.268Z,17.40
2018-04-12T19:55:38.462Z,17.40
2018-04-12T19:58:04.695Z,17.50
2018-04-12T20:00:30.890Z,17.40
2018-04-12T20:02:57.106Z,17.40
2018-04-12T20:05:23.299Z,17.40
2018-04-12T20:07:50.333Z,17.40
2018-04-12T20:10:17.252Z,17.30
2018-04-12T20:12:43.462Z,17.30
2018-04-12T20:15:09.651Z,17.30
2018-04-12T20:17:36.631Z,17.20
2018-04-12T20:20:09.831Z,17.20
2018-04-12T20:22:36.059Z,17.00
2018-04-12T20:25:02.256Z,16.20
2018-04-12T20:27:28.487Z,15.20
2018-04-12T20:29:54.688Z,14.50
2018-04-12T20:32:22.402Z,13.70
2018-04-12T20:34:48.627Z,13.70
2018-04-12T20:37:14.835Z,13.60
2018-04-12T20:39:41.053Z,13.50
2018-04-12T20:42:07.987Z,13.30
2018-04-12T20:44:35.681Z,13.30
2018-04-12T20:47:01.875Z,13.30
2018-04-12T20:49:29.182Z,13.30
2018-04-12T20:51:55.402Z,13.20
2018-04-12T20:54:21.616Z,13.30
2018-04-12T20:56:47.814Z,13.30
2018-04-12T20:59:14.827Z,13.30
2018-04-12T21:01:41.010Z,13.30
2018-04-12T21:04:07.966Z,13.30
2018-04-12T21:06:34.151Z,13.30
2018-04-12T21:09:00.362Z,13.30
2018-04-12T21:11:26.558Z,13.30
2018-04-12T21:13:52.771Z,13.40
2018-04-12T21:16:19.702Z,13.40
2018-04-12T21:18:45.934Z,13.40
2018-04-12T21:21:12.870Z,13.30
2018-04-12T21:23:39.088Z,13.30
2018-04-12T21:26:06.079Z,13.20
2018-04-12T21:28:32.370Z,13.20
2018-04-12T21:30:58.554Z,13.10
2018-04-12T21:33:24.769Z,13.10
2018-04-12T21:35:50.958Z,13.10
2018-04-12T21:38:17.174Z,13.10
2018-04-12T21:40:43.363Z,13.00
2018-04-12T21:43:09.593Z,13.10
2018-04-12T21:45:35.778Z,13.00
2018-04-12T21:48:01.969Z,13.00
2018-04-12T21:50:28.201Z,13.10
2018-04-12T21:52:54.387Z,13.10
2018-04-12T21:55:21.339Z,13.10
2018-04-12T21:57:47.532Z,13.10
2018-04-12T22:00:13.744Z,13.00
2018-04-12T22:02:39.938Z,13.00
2018-04-12T22:05:06.156Z,13.00
2018-04-12T22:07:32.343Z,13.00
2018-04-12T22:09:59.299Z,13.10
2018-04-12T22:12:26.301Z,13.10
2018-04-12T22:14:52.471Z,13.10
2018-04-12T22:17:20.193Z,13.10
2018-04-12T22:19:46.414Z,13.10
2018-04-12T22:22:12.617Z,13.10
2018-04-12T22:24:39.576Z,13.10
2018-04-12T22:27:05.789Z,13.00
2018-04-12T22:29:32.738Z,13.00
2018-04-12T22:31:59.841Z,13.00
2018-04-12T22:34:26.031Z,13.00
2018-04-12T22:36:52.278Z,13.00
2018-04-12T22:39:18.493Z,12.90
2018-04-12T22:41:44.695Z,12.90
2018-04-12T22:44:11.651Z,13.00
2018-04-12T22:46:38.580Z,13.00
2018-04-12T22:49:05.544Z,13.00
2018-04-12T22:51:31.738Z,13.00
2018-04-12T22:53:57.958Z,13.00
2018-04-12T22:56:24.220Z,13.00
2018-04-12T22:58:51.403Z,13.10
2018-04-12T23:01:17.595Z,13.00
2018-04-12T23:03:44.555Z,13.10
2018-04-12T23:06:11.483Z,13.10
2018-04-12T23:08:38.438Z,13.20
2018-04-12T23:11:04.691Z,13.10
2018-04-12T23:13:30.903Z,13.20
2018-04-12T23:15:57.830Z,13.30
2018-04-12T23:18:24.815Z,13.20
2018-04-12T23:20:51.519Z,13.20
2018-04-12T23:23:18.483Z,13.10
2018-04-12T23:25:45.429Z,13.10
2018-04-12T23:28:12.387Z,13.10
2018-04-12T23:30:38.575Z,13.00
2018-04-12T23:33:06.313Z,13.00
2018-04-12T23:35:32.503Z,13.00
2018-04-12T23:37:58.691Z,13.00
2018-04-12T23:40:24.899Z,13.00
2018-04-12T23:42:51.087Z,13.00
2018-04-12T23:45:17.307Z,12.90
2018-04-12T23:47:44.234Z,12.90
2018-04-12T23:50:11.261Z,12.90
2018-04-12T23:52:37.455Z,12.90
2018-04-12T23:55:03.740Z,12.90
2018-04-12T23:57:30.679Z,12.80
2018-04-12T23:59:56.902Z,12.80
